Terminal Aerodrome Forecast
Issued by NWS

Home | Current Version | Previous Version | Text Only | Print | Product List | Glossary On
Versions: 1 2 3 4 5 6 7 8 9 10 11 12 13 14 15 16 17 18 19
000
FTUS41 KAKQ 272300
TAFPHF
TAF
KPHF 272320Z 2800/2824 VRB03KT P6SM SKC
     FM280900 25004KT P6SM BKN060
     FM281300 35007KT P6SM FEW040
     FM281900 03007KT P6SM SCT250=

USA.gov is the U.S. government's official web portal to all federal, state and local government web resources and services.